sensor_id;sensor_type;location;lat;lon;timestamp;pressure;altitude;pressure_sealevel;temperature;humidity
77147;BME280;66121;52.584;9.694;2023-02-01T00:01:19;101097.91;;;4.11;80.19
77147;BME280;66121;52.584;9.694;2023-02-01T00:03:45;101107.03;;;4.15;80.18
77147;BME280;66121;52.584;9.694;2023-02-01T00:06:10;101097.19;;;4.23;79.75
77147;BME280;66121;52.584;9.694;2023-02-01T00:08:35;101104.16;;;4.12;80.04
77147;BME280;66121;52.584;9.694;2023-02-01T00:11:03;101101.63;;;4.07;80.44
77147;BME280;66121;52.584;9.694;2023-02-01T00:13:30;101109.50;;;4.08;80.25
77147;BME280;66121;52.584;9.694;2023-02-01T00:16:05;101097.41;;;4.09;79.99
77147;BME280;66121;52.584;9.694;2023-02-01T00:18:30;101094.84;;;4.13;80.14
77147;BME280;66121;52.584;9.694;2023-02-01T00:20:56;101077.38;;;4.05;80.07
77147;BME280;66121;52.584;9.694;2023-02-01T00:23:21;101078.63;;;4.16;80.47
77147;BME280;66121;52.584;9.694;2023-02-01T00:25:46;101072.34;;;4.16;79.61
77147;BME280;66121;52.584;9.694;2023-02-01T00:28:12;101085.66;;;4.17;80.27
77147;BME280;66121;52.584;9.694;2023-02-01T00:30:38;101080.06;;;4.14;80.18
77147;BME280;66121;52.584;9.694;2023-02-01T00:33:03;101086.19;;;4.11;80.42
77147;BME280;66121;52.584;9.694;2023-02-01T00:35:29;101081.00;;;4.18;80.60
77147;BME280;66121;52.584;9.694;2023-02-01T00:37:54;101085.34;;;4.19;79.68
77147;BME280;66121;52.584;9.694;2023-02-01T00:40:19;101083.47;;;4.11;80.04
77147;BME280;66121;52.584;9.694;2023-02-01T00:42:44;101089.19;;;4.18;78.92
77147;BME280;66121;52.584;9.694;2023-02-01T00:45:10;101089.19;;;4.18;79.59
77147;BME280;66121;52.584;9.694;2023-02-01T00:47:35;101082.81;;;4.14;79.92
77147;BME280;66121;52.584;9.694;2023-02-01T00:50:00;101075.13;;;4.07;79.64
77147;BME280;66121;52.584;9.694;2023-02-01T00:52:26;101077.19;;;4.10;80.03
77147;BME280;66121;52.584;9.694;2023-02-01T00:54:51;101070.44;;;4.16;79.14
77147;BME280;66121;52.584;9.694;2023-02-01T00:57:16;101068.00;;;4.15;79.87
77147;BME280;66121;52.584;9.694;2023-02-01T00:59:41;101064.97;;;4.16;79.44
77147;BME280;66121;52.584;9.694;2023-02-01T01:02:07;101064.97;;;4.16;79.56
77147;BME280;66121;52.584;9.694;2023-02-01T01:04:32;101075.81;;;4.25;79.51
77147;BME280;66121;52.584;9.694;2023-02-01T01:06:57;101071.19;;;4.17;79.47
77147;BME280;66121;52.584;9.694;2023-02-01T01:09:23;101069.88;;;4.23;78.88
77147;BME280;66121;52.584;9.694;2023-02-01T01:11:48;101079.00;;;4.27;79.29
77147;BME280;66121;52.584;9.694;2023-02-01T01:14:15;101084.47;;;4.27;79.20
77147;BME280;66121;52.584;9.694;2023-02-01T01:16:41;101078.81;;;4.32;79.85
77147;BME280;66121;52.584;9.694;2023-02-01T01:19:06;101076.44;;;4.30;79.26
77147;BME280;66121;52.584;9.694;2023-02-01T01:21:31;101066.97;;;4.28;79.10
77147;BME280;66121;52.584;9.694;2023-02-01T01:23:57;101068.09;;;4.27;79.90
77147;BME280;66121;52.584;9.694;2023-02-01T01:26:26;101067.44;;;4.30;79.10
77147;BME280;66121;52.584;9.694;2023-02-01T01:28:52;101078.19;;;4.26;79.49
77147;BME280;66121;52.584;9.694;2023-02-01T01:31:20;101071.97;;;4.26;79.36
77147;BME280;66121;52.584;9.694;2023-02-01T01:33:53;101080.44;;;4.33;79.33
77147;BME280;66121;52.584;9.694;2023-02-01T01:36:19;101080.09;;;4.34;79.43
77147;BME280;66121;52.584;9.694;2023-02-01T01:38:45;101063.56;;;4.31;79.31
77147;BME280;66121;52.584;9.694;2023-02-01T01:41:16;101069.50;;;4.33;78.94
77147;BME280;66121;52.584;9.694;2023-02-01T01:43:57;101051.31;;;4.37;78.58
77147;BME280;66121;52.584;9.694;2023-02-01T01:46:34;101059.56;;;4.28;78.34
77147;BME280;66121;52.584;9.694;2023-02-01T01:49:05;101057.50;;;4.25;79.66
77147;BME280;66121;52.584;9.694;2023-02-01T01:51:36;101052.16;;;4.29;79.79
77147;BME280;66121;52.584;9.694;2023-02-01T01:54:08;101037.16;;;4.14;80.21
77147;BME280;66121;52.584;9.694;2023-02-01T01:56:37;101048.16;;;4.26;79.47
77147;BME280;66121;52.584;9.694;2023-02-01T01:59:04;101035.22;;;4.15;80.24
77147;BME280;66121;52.584;9.694;2023-02-01T02:01:29;101028.31;;;4.17;79.87
77147;BME280;66121;52.584;9.694;2023-02-01T02:03:55;101035.97;;;4.24;79.95
77147;BME280;66121;52.584;9.694;2023-02-01T02:06:42;101051.22;;;4.25;80.17
77147;BME280;66121;52.584;9.694;2023-02-01T02:09:10;101037.13;;;4.23;79.63
77147;BME280;66121;52.584;9.694;2023-02-01T02:11:36;101034.66;;;4.30;79.53
77147;BME280;66121;52.584;9.694;2023-02-01T02:14:02;101038.31;;;4.34;78.91
77147;BME280;66121;52.584;9.694;2023-02-01T02:20:04;101024.66;;;4.34;79.09
77147;BME280;66121;52.584;9.694;2023-02-01T02:28:08;101015.25;;;4.23;80.44
77147;BME280;66121;52.584;9.694;2023-02-01T02:36:28;101009.25;;;4.29;79.23
77147;BME280;66121;52.584;9.694;2023-02-01T02:44:45;100986.88;;;4.15;79.87
77147;BME280;66121;52.584;9.694;2023-02-01T02:53:18;100978.34;;;4.17;78.94
77147;BME280;66121;52.584;9.694;2023-02-01T02:56:05;100985.75;;;4.16;80.32
77147;BME280;66121;52.584;9.694;2023-02-01T02:58:51;100970.91;;;4.26;79.82
77147;BME280;66121;52.584;9.694;2023-02-01T03:01:35;100961.66;;;4.18;79.96
77147;BME280;66121;52.584;9.694;2023-02-01T03:04:20;100965.75;;;4.24;78.91
77147;BME280;66121;52.584;9.694;2023-02-01T03:06:46;100962.50;;;4.31;79.36
77147;BME280;66121;52.584;9.694;2023-02-01T03:09:17;100955.09;;;4.31;79.33
77147;BME280;66121;52.584;9.694;2023-02-01T03:11:46;100942.66;;;4.22;79.74
77147;BME280;66121;52.584;9.694;2023-02-01T03:14:35;100945.91;;;4.36;79.39
77147;BME280;66121;52.584;9.694;2023-02-01T03:17:10;100952.03;;;4.33;79.48
77147;BME280;66121;52.584;9.694;2023-02-01T03:19:39;100946.38;;;4.38;79.77
77147;BME280;66121;52.584;9.694;2023-02-01T03:22:12;100925.22;;;4.47;79.23
77147;BME280;66121;52.584;9.694;2023-02-01T03:24:41;100935.34;;;4.46;79.07
77147;BME280;66121;52.584;9.694;2023-02-01T03:27:20;100930.69;;;4.47;79.52
77147;BME280;66121;52.584;9.694;2023-02-01T03:29:52;100925.56;;;4.45;78.67
77147;BME280;66121;52.584;9.694;2023-02-01T03:32:19;100940.72;;;4.43;79.03
77147;BME280;66121;52.584;9.694;2023-02-01T03:34:46;100929.13;;;4.46;78.88
77147;BME280;66121;52.584;9.694;2023-02-01T03:37:16;100927.16;;;4.46;79.75
77147;BME280;66121;52.584;9.694;2023-02-01T03:42:21;100911.56;;;4.47;79.16
77147;BME280;66121;52.584;9.694;2023-02-01T03:44:57;100902.91;;;4.45;79.05
77147;BME280;66121;52.584;9.694;2023-02-01T03:47:27;100900.19;;;4.45;79.18
77147;BME280;66121;52.584;9.694;2023-02-01T03:49:59;100895.97;;;4.47;78.99
77147;BME280;66121;52.584;9.694;2023-02-01T03:52:39;100899.06;;;4.46;79.19
77147;BME280;66121;52.584;9.694;2023-02-01T03:55:05;100886.97;;;4.47;78.75
77147;BME280;66121;52.584;9.694;2023-02-01T03:57:34;100888.69;;;4.51;78.39
77147;BME280;66121;52.584;9.694;2023-02-01T04:00:07;100884.16;;;4.55;78.05
77147;BME280;66121;52.584;9.694;2023-02-01T04:02:34;100889.63;;;4.55;78.22
77147;BME280;66121;52.584;9.694;2023-02-01T04:05:00;100869.91;;;4.50;78.59
77147;BME280;66121;52.584;9.694;2023-02-01T04:07:25;100866.06;;;4.51;77.92
77147;BME280;66121;52.584;9.694;2023-02-01T04:09:50;100877.44;;;4.53;77.89
77147;BME280;66121;52.584;9.694;2023-02-01T04:12:15;100868.19;;;4.45;79.52
77147;BME280;66121;52.584;9.694;2023-02-01T04:14:41;100863.03;;;4.32;79.09
77147;BME280;66121;52.584;9.694;2023-02-01T04:17:06;100867.03;;;4.46;79.13
77147;BME280;66121;52.584;9.694;2023-02-01T04:19:31;100870.25;;;4.48;79.40
77147;BME280;66121;52.584;9.694;2023-02-01T04:21:57;100872.31;;;4.51;77.94
77147;BME280;66121;52.584;9.694;2023-02-01T04:24:22;100865.16;;;4.59;78.52
77147;BME280;66121;52.584;9.694;2023-02-01T04:26:47;100863.31;;;4.51;78.77
77147;BME280;66121;52.584;9.694;2023-02-01T04:29:13;100866.06;;;4.51;78.96
77147;BME280;66121;52.584;9.694;2023-02-01T04:31:38;100861.03;;;4.53;78.71
77147;BME280;66121;52.584;9.694;2023-02-01T04:34:03;100855.44;;;4.49;79.36
77147;BME280;66121;52.584;9.694;2023-02-01T04:36:28;100842.94;;;4.48;79.90
77147;BME280;66121;52.584;9.694;2023-02-01T04:38:54;100858.31;;;4.53;79.83
77147;BME280;66121;52.584;9.694;2023-02-01T04:41:20;100851.59;;;4.50;80.48
77147;BME280;66121;52.584;9.694;2023-02-01T04:43:49;100848.84;;;4.38;82.87
77147;BME280;66121;52.584;9.694;2023-02-01T04:46:16;100840.06;;;4.33;83.80
77147;BME280;66121;52.584;9.694;2023-02-01T04:48:42;100840.47;;;4.23;84.73
77147;BME280;66121;52.584;9.694;2023-02-01T04:51:07;100836.13;;;4.22;85.43
77147;BME280;66121;52.584;9.694;2023-02-01T04:53:33;100830.44;;;4.15;85.10
77147;BME280;66121;52.584;9.694;2023-02-01T04:55:58;100815.88;;;4.11;84.59
77147;BME280;66121;52.584;9.694;2023-02-01T04:58:24;100829.09;;;4.21;84.83
77147;BME280;66121;52.584;9.694;2023-02-01T05:00:49;100822.38;;;4.18;84.46
77147;BME280;66121;52.584;9.694;2023-02-01T05:03:15;100827.63;;;4.23;84.58
77147;BME280;66121;52.584;9.694;2023-02-01T05:05:40;100828.50;;;4.15;85.49
77147;BME280;66121;52.584;9.694;2023-02-01T05:08:06;100822.44;;;4.10;85.82
77147;BME280;66121;52.584;9.694;2023-02-01T05:10:31;100820.66;;;4.14;85.15
77147;BME280;66121;52.584;9.694;2023-02-01T05:12:56;100820.66;;;4.14;85.52
77147;BME280;66121;52.584;9.694;2023-02-01T05:15:40;100828.97;;;3.97;86.26
77147;BME280;66121;52.584;9.694;2023-02-01T05:18:05;100822.00;;;4.08;85.33
77147;BME280;66121;52.584;9.694;2023-02-01T05:20:31;100818.56;;;3.99;86.99
77147;BME280;66121;52.584;9.694;2023-02-01T05:22:56;100814.22;;;3.98;86.84
77147;BME280;66121;52.584;9.694;2023-02-01T05:25:22;100798.59;;;3.86;88.09
77147;BME280;66121;52.584;9.694;2023-02-01T05:27:47;100804.38;;;3.84;87.78
77147;BME280;66121;52.584;9.694;2023-02-01T05:30:13;100808.16;;;3.92;87.06
77147;BME280;66121;52.584;9.694;2023-02-01T05:32:38;100803.66;;;3.96;86.66
77147;BME280;66121;52.584;9.694;2023-02-01T05:35:04;100805.81;;;4.03;86.55
77147;BME280;66121;52.584;9.694;2023-02-01T05:37:30;100804.94;;;4.11;86.27
77147;BME280;66121;52.584;9.694;2023-02-01T05:39:55;100809.25;;;4.12;86.96
77147;BME280;66121;52.584;9.694;2023-02-01T05:42:20;100782.50;;;4.05;86.32
77147;BME280;66121;52.584;9.694;2023-02-01T05:44:46;100795.94;;;4.10;86.83
77147;BME280;66121;52.584;9.694;2023-02-01T05:47:11;100783.00;;;4.19;86.29
77147;BME280;66121;52.584;9.694;2023-02-01T05:49:37;100774.78;;;4.19;85.78
77147;BME280;66121;52.584;9.694;2023-02-01T05:52:03;100787.88;;;4.14;86.53
77147;BME280;66121;52.584;9.694;2023-02-01T05:54:28;100772.63;;;4.13;86.41
77147;BME280;66121;52.584;9.694;2023-02-01T05:56:54;100787.19;;;4.17;86.44
77147;BME280;66121;52.584;9.694;2023-02-01T05:59:19;100781.72;;;4.17;86.07
77147;BME280;66121;52.584;9.694;2023-02-01T06:01:44;100776.47;;;4.12;86.53
77147;BME280;66121;52.584;9.694;2023-02-01T06:04:10;100769.00;;;4.21;85.54
77147;BME280;66121;52.584;9.694;2023-02-01T06:06:35;100775.28;;;4.21;85.64
77147;BME280;66121;52.584;9.694;2023-02-01T06:09:02;100773.44;;;4.25;86.99
77147;BME280;66121;52.584;9.694;2023-02-01T06:11:28;100757.38;;;4.12;87.29
77147;BME280;66121;52.584;9.694;2023-02-01T06:13:53;100770.25;;;4.11;88.69
77147;BME280;66121;52.584;9.694;2023-02-01T06:16:20;100770.91;;;4.08;88.27
77147;BME280;66121;52.584;9.694;2023-02-01T06:18:46;100761.34;;;4.02;89.00
77147;BME280;66121;52.584;9.694;2023-02-01T06:21:11;100758.00;;;3.97;88.92
77147;BME280;66121;52.584;9.694;2023-02-01T06:23:38;100757.59;;;4.07;88.66
77147;BME280;66121;52.584;9.694;2023-02-01T06:26:05;100776.25;;;4.05;88.84
77147;BME280;66121;52.584;9.694;2023-02-01T06:28:32;100779.09;;;4.08;89.08
77147;BME280;66121;52.584;9.694;2023-02-01T06:30:57;100767.13;;;4.01;89.28
77147;BME280;66121;52.584;9.694;2023-02-01T06:33:24;100771.38;;;4.10;88.47
77147;BME280;66121;52.584;9.694;2023-02-01T06:35:57;100770.34;;;4.15;88.52
77147;BME280;66121;52.584;9.694;2023-02-01T06:38:23;100773.28;;;4.10;88.46
77147;BME280;66121;52.584;9.694;2023-02-01T06:40:55;100756.25;;;4.13;88.25
77147;BME280;66121;52.584;9.694;2023-02-01T06:43:23;100763.78;;;4.16;88.30
77147;BME280;66121;52.584;9.694;2023-02-01T06:45:49;100774.25;;;4.14;88.29
77147;BME280;66121;52.584;9.694;2023-02-01T06:48:14;100784.81;;;4.15;88.79
77147;BME280;66121;52.584;9.694;2023-02-01T06:50:39;100784.47;;;4.17;88.95
77147;BME280;66121;52.584;9.694;2023-02-01T06:53:04;100782.28;;;4.10;88.84
77147;BME280;66121;52.584;9.694;2023-02-01T06:55:30;100792.09;;;4.11;89.54
77147;BME280;66121;52.584;9.694;2023-02-01T06:57:55;100788.66;;;4.14;89.24
77147;BME280;66121;52.584;9.694;2023-02-01T07:00:24;100781.50;;;4.10;88.69
77147;BME280;66121;52.584;9.694;2023-02-01T07:02:50;100808.13;;;4.13;88.80
77147;BME280;66121;52.584;9.694;2023-02-01T07:05:16;100793.47;;;4.17;87.89
77147;BME280;66121;52.584;9.694;2023-02-01T07:07:41;100777.63;;;4.11;89.11
77147;BME280;66121;52.584;9.694;2023-02-01T07:10:07;100790.16;;;4.24;88.32
77147;BME280;66121;52.584;9.694;2023-02-01T07:12:33;100792.69;;;4.29;88.96
77147;BME280;66121;52.584;9.694;2023-02-01T07:14:58;100791.09;;;4.28;88.28
77147;BME280;66121;52.584;9.694;2023-02-01T07:17:23;100792.22;;;4.27;88.51
77147;BME280;66121;52.584;9.694;2023-02-01T07:19:49;100797.91;;;4.22;89.22
77147;BME280;66121;52.584;9.694;2023-02-01T07:22:17;100803.03;;;4.23;89.00
77147;BME280;66121;52.584;9.694;2023-02-01T07:24:42;100814.22;;;4.30;88.31
77147;BME280;66121;52.584;9.694;2023-02-01T07:27:08;100804.41;;;4.29;89.47
77147;BME280;66121;52.584;9.694;2023-02-01T07:29:33;100806.69;;;4.27;89.29
77147;BME280;66121;52.584;9.694;2023-02-01T07:31:58;100809.28;;;4.24;89.55
77147;BME280;66121;52.584;9.694;2023-02-01T07:34:25;100807.34;;;4.24;89.63
77147;BME280;66121;52.584;9.694;2023-02-01T07:36:50;100817.75;;;4.31;89.32
77147;BME280;66121;52.584;9.694;2023-02-01T07:39:16;100824.91;;;4.23;89.50
77147;BME280;66121;52.584;9.694;2023-02-01T07:41:41;100830.13;;;4.28;89.71
77147;BME280;66121;52.584;9.694;2023-02-01T07:44:06;100825.81;;;4.27;90.37
77147;BME280;66121;52.584;9.694;2023-02-01T07:46:32;100819.06;;;4.25;89.63
77147;BME280;66121;52.584;9.694;2023-02-01T07:48:57;100837.84;;;4.26;90.08
77147;BME280;66121;52.584;9.694;2023-02-01T07:51:22;100827.72;;;4.27;90.10
77147;BME280;66121;52.584;9.694;2023-02-01T07:53:48;100849.94;;;4.25;90.11
77147;BME280;66121;52.584;9.694;2023-02-01T07:56:18;100873.69;;;3.71;89.52
77147;BME280;66121;52.584;9.694;2023-02-01T07:58:47;100899.78;;;3.31;89.06
77147;BME280;66121;52.584;9.694;2023-02-01T08:01:14;100887.56;;;2.99;89.76
77147;BME280;66121;52.584;9.694;2023-02-01T08:04:00;100877.88;;;2.81;90.36
77147;BME280;66121;52.584;9.694;2023-02-01T08:06:27;100870.97;;;2.84;89.62
77147;BME280;66121;52.584;9.694;2023-02-01T08:08:53;100855.81;;;2.74;89.45
77147;BME280;66121;52.584;9.694;2023-02-01T08:11:20;100866.81;;;2.78;89.88
77147;BME280;66121;52.584;9.694;2023-02-01T08:13:46;100871.28;;;2.82;89.62
77147;BME280;66121;52.584;9.694;2023-02-01T08:16:13;100860.69;;;2.89;90.13
77147;BME280;66121;52.584;9.694;2023-02-01T08:18:40;100871.03;;;3.04;89.93
77147;BME280;66121;52.584;9.694;2023-02-01T08:21:11;100864.91;;;3.16;89.86
77147;BME280;66121;52.584;9.694;2023-02-01T08:23:37;100863.75;;;3.17;90.53
77147;BME280;66121;52.584;9.694;2023-02-01T08:28:42;100883.78;;;3.50;89.93
77147;BME280;66121;52.584;9.694;2023-02-01T08:31:10;100870.09;;;3.59;89.71
77147;BME280;66121;52.584;9.694;2023-02-01T08:33:36;100870.69;;;3.85;88.84
77147;BME280;66121;52.584;9.694;2023-02-01T08:36:03;100878.47;;;3.95;88.63
77147;BME280;66121;52.584;9.694;2023-02-01T08:38:29;100898.63;;;4.03;88.87
77147;BME280;66121;52.584;9.694;2023-02-01T08:40:55;100884.19;;;4.02;89.79
77147;BME280;66121;52.584;9.694;2023-02-01T08:43:20;100865.31;;;4.09;88.85
77147;BME280;66121;52.584;9.694;2023-02-01T08:45:46;100872.34;;;4.19;88.90
77147;BME280;66121;52.584;9.694;2023-02-01T08:48:11;100855.81;;;4.15;89.01
77147;BME280;66121;52.584;9.694;2023-02-01T08:50:36;100866.72;;;4.15;89.16
77147;BME280;66121;52.584;9.694;2023-02-01T08:53:02;100857.97;;;4.22;88.79
77147;BME280;66121;52.584;9.694;2023-02-01T08:55:27;100863.59;;;4.25;89.05
77147;BME280;66121;52.584;9.694;2023-02-01T08:57:53;100876.59;;;4.40;88.19
77147;BME280;66121;52.584;9.694;2023-02-01T09:00:18;100876.63;;;4.52;87.13
77147;BME280;66121;52.584;9.694;2023-02-01T09:02:44;100867.56;;;4.61;87.01
77147;BME280;66121;52.584;9.694;2023-02-01T09:05:10;100863.22;;;4.72;87.04
77147;BME280;66121;52.584;9.694;2023-02-01T09:07:36;100861.88;;;4.78;86.73
77147;BME280;66121;52.584;9.694;2023-02-01T09:10:02;100866.31;;;4.82;86.31
77147;BME280;66121;52.584;9.694;2023-02-01T09:12:29;100847.78;;;4.76;85.41
77147;BME280;66121;52.584;9.694;2023-02-01T09:14:57;100859.38;;;4.85;86.04
77147;BME280;66121;52.584;9.694;2023-02-01T09:17:28;100859.84;;;4.87;86.04
77147;BME280;66121;52.584;9.694;2023-02-01T09:19:53;100871.66;;;4.79;85.51
77147;BME280;66121;52.584;9.694;2023-02-01T09:22:19;100875.66;;;4.81;86.06
77147;BME280;66121;52.584;9.694;2023-02-01T09:24:44;100881.72;;;4.87;85.96
77147;BME280;66121;52.584;9.694;2023-02-01T09:27:10;100875.44;;;4.74;87.62
77147;BME280;66121;52.584;9.694;2023-02-01T09:29:35;100892.53;;;4.83;87.54
77147;BME280;66121;52.584;9.694;2023-02-01T09:32:01;100894.09;;;4.72;87.16
77147;BME280;66121;52.584;9.694;2023-02-01T09:34:26;100883.31;;;4.76;87.14
77147;BME280;66121;52.584;9.694;2023-02-01T09:36:51;100887.03;;;4.71;88.19
77147;BME280;66121;52.584;9.694;2023-02-01T09:39:17;100891.94;;;4.66;88.21
77147;BME280;66121;52.584;9.694;2023-02-01T09:44:29;100896.69;;;4.56;89.35
77147;BME280;66121;52.584;9.694;2023-02-01T09:46:58;100898.06;;;4.63;89.64
77147;BME280;66121;52.584;9.694;2023-02-01T09:49:33;100886.00;;;4.64;88.26
77147;BME280;66121;52.584;9.694;2023-02-01T09:52:05;100895.56;;;4.57;88.71
77147;BME280;66121;52.584;9.694;2023-02-01T09:54:54;100885.88;;;4.60;88.20
77147;BME280;66121;52.584;9.694;2023-02-01T09:57:31;100884.28;;;4.71;87.29
77147;BME280;66121;52.584;9.694;2023-02-01T10:00:05;100876.00;;;4.80;86.02
77147;BME280;66121;52.584;9.694;2023-02-01T10:02:36;100882.81;;;4.74;87.60
77147;BME280;66121;52.584;9.694;2023-02-01T10:05:04;100881.25;;;4.85;86.36
77147;BME280;66121;52.584;9.694;2023-02-01T10:10:21;100876.59;;;5.09;86.32
77147;BME280;66121;52.584;9.694;2023-02-01T10:13:27;100873.06;;;5.21;84.51
77147;BME280;66121;52.584;9.694;2023-02-01T10:18:44;100863.38;;;5.48;83.84
77147;BME280;66121;52.584;9.694;2023-02-01T10:21:43;100867.78;;;5.64;82.99
77147;BME280;66121;52.584;9.694;2023-02-01T10:24:28;100872.56;;;5.67;82.87
77147;BME280;66121;52.584;9.694;2023-02-01T10:29:41;100862.75;;;5.66;83.12
77147;BME280;66121;52.584;9.694;2023-02-01T10:32:16;100851.94;;;5.58;82.63
77147;BME280;66121;52.584;9.694;2023-02-01T10:34:42;100849.31;;;5.49;82.37
77147;BME280;66121;52.584;9.694;2023-02-01T10:37:32;100857.97;;;5.63;82.45
77147;BME280;66121;52.584;9.694;2023-02-01T10:40:20;100851.72;;;5.63;82.49
77147;BME280;66121;52.584;9.694;2023-02-01T10:42:47;100852.84;;;5.62;82.38
77147;BME280;66121;52.584;9.694;2023-02-01T10:45:17;100857.41;;;5.58;81.78
77147;BME280;66121;52.584;9.694;2023-02-01T10:47:44;100847.84;;;5.52;81.16
77147;BME280;66121;52.584;9.694;2023-02-01T10:50:19;100864.94;;;5.61;82.66
77147;BME280;66121;52.584;9.694;2023-02-01T10:53:06;100853.41;;;5.67;81.53
77147;BME280;66121;52.584;9.694;2023-02-01T10:55:40;100854.44;;;5.63;81.72
77147;BME280;66121;52.584;9.694;2023-02-01T10:58:14;100846.78;;;5.68;81.00
77147;BME280;66121;52.584;9.694;2023-02-01T11:01:04;100839.72;;;5.67;81.35
77147;BME280;66121;52.584;9.694;2023-02-01T11:06:00;100828.13;;;5.58;81.05
77147;BME280;66121;52.584;9.694;2023-02-01T11:08:26;100820.69;;;5.59;79.75
77147;BME280;66121;52.584;9.694;2023-02-01T11:11:03;100815.75;;;5.64;80.52
77147;BME280;66121;52.584;9.694;2023-02-01T11:13:32;100813.63;;;5.58;80.79
77147;BME280;66121;52.584;9.694;2023-02-01T11:16:03;100803.69;;;5.65;80.53
77147;BME280;66121;52.584;9.694;2023-02-01T11:18:35;100803.28;;;5.79;80.87
77147;BME280;66121;52.584;9.694;2023-02-01T11:21:02;100798.16;;;5.90;80.66
77147;BME280;66121;52.584;9.694;2023-02-01T11:23:29;100788.81;;;6.06;79.79
77147;BME280;66121;52.584;9.694;2023-02-01T11:26:00;100794.44;;;6.25;78.60
77147;BME280;66121;52.584;9.694;2023-02-01T11:28:33;100788.94;;;6.41;77.90
77147;BME280;66121;52.584;9.694;2023-02-01T11:31:05;100793.03;;;6.47;78.45
77147;BME280;66121;52.584;9.694;2023-02-01T11:33:35;100772.78;;;6.36;78.18
77147;BME280;66121;52.584;9.694;2023-02-01T11:36:19;100773.53;;;6.21;76.84
77147;BME280;66121;52.584;9.694;2023-02-01T11:38:52;100769.94;;;6.17;78.09
77147;BME280;66121;52.584;9.694;2023-02-01T11:41:26;100759.78;;;6.17;78.17
77147;BME280;66121;52.584;9.694;2023-02-01T11:44:00;100752.75;;;6.04;79.49
77147;BME280;66121;52.584;9.694;2023-02-01T11:46:33;100745.78;;;5.79;81.28
77147;BME280;66121;52.584;9.694;2023-02-01T11:52:03;100742.78;;;5.56;81.54
77147;BME280;66121;52.584;9.694;2023-02-01T11:55:05;100739.19;;;5.52;83.70
77147;BME280;66121;52.584;9.694;2023-02-01T12:00:55;100720.88;;;5.41;84.72
77147;BME280;66121;52.584;9.694;2023-02-01T12:11:43;100695.38;;;5.25;84.76
77147;BME280;66121;52.584;9.694;2023-02-01T12:16:57;100684.59;;;5.16;85.70
77147;BME280;66121;52.584;9.694;2023-02-01T12:20:00;100679.13;;;5.16;86.36
77147;BME280;66121;52.584;9.694;2023-02-01T12:22:46;100642.44;;;5.05;86.57
77147;BME280;66121;52.584;9.694;2023-02-01T12:25:51;100641.06;;;5.11;86.62
77147;BME280;66121;52.584;9.694;2023-02-01T12:31:42;100616.72;;;4.94;87.47
77147;BME280;66121;52.584;9.694;2023-02-01T12:36:50;100628.91;;;4.96;87.84
77147;BME280;66121;52.584;9.694;2023-02-01T12:39:27;100627.78;;;4.97;87.98
77147;BME280;66121;52.584;9.694;2023-02-01T12:42:10;100630.50;;;4.97;87.75
77147;BME280;66121;52.584;9.694;2023-02-01T12:44:43;100634.84;;;4.98;88.16
77147;BME280;66121;52.584;9.694;2023-02-01T12:52:20;100589.22;;;4.75;89.83
77147;BME280;66121;52.584;9.694;2023-02-01T12:55:31;100595.94;;;4.77;89.36
77147;BME280;66121;52.584;9.694;2023-02-01T12:58:12;100586.50;;;4.75;89.40
77147;BME280;66121;52.584;9.694;2023-02-01T13:00:49;100560.00;;;4.63;88.51
77147;BME280;66121;52.584;9.694;2023-02-01T13:05:54;100603.19;;;4.57;88.88
77147;BME280;66121;52.584;9.694;2023-02-01T13:08:25;100615.38;;;4.48;90.01
77147;BME280;66121;52.584;9.694;2023-02-01T13:13:44;100688.34;;;4.47;89.83
77147;BME280;66121;52.584;9.694;2023-02-01T13:16:28;100700.41;;;4.34;89.97
77147;BME280;66121;52.584;9.694;2023-02-01T13:19:16;100705.19;;;4.25;89.93
77147;BME280;66121;52.584;9.694;2023-02-01T13:21:48;100697.66;;;4.22;88.80
77147;BME280;66121;52.584;9.694;2023-02-01T13:24:33;100685.16;;;4.21;89.27
77147;BME280;66121;52.584;9.694;2023-02-01T13:27:00;100675.47;;;4.24;88.33
77147;BME280;66121;52.584;9.694;2023-02-01T13:29:28;100664.22;;;4.13;87.98
77147;BME280;66121;52.584;9.694;2023-02-01T13:32:01;100668.75;;;4.09;88.24
77147;BME280;66121;52.584;9.694;2023-02-01T13:37:34;100695.59;;;4.07;89.38
77147;BME280;66121;52.584;9.694;2023-02-01T13:43:15;100711.28;;;3.98;88.61
77147;BME280;66121;52.584;9.694;2023-02-01T13:45:47;100697.94;;;3.84;88.85
77147;BME280;66121;52.584;9.694;2023-02-01T13:51:18;100700.41;;;3.77;87.33
77147;BME280;66121;52.584;9.694;2023-02-01T13:53:54;100687.88;;;3.64;87.69
77147;BME280;66121;52.584;9.694;2023-02-01T13:56:21;100697.44;;;3.70;87.75
77147;BME280;66121;52.584;9.694;2023-02-01T13:58:49;100704.41;;;3.80;87.29
77147;BME280;66121;52.584;9.694;2023-02-01T14:03:50;100710.44;;;3.73;87.87
77147;BME280;66121;52.584;9.694;2023-02-01T14:06:40;100714.06;;;3.77;87.24
77147;BME280;66121;52.584;9.694;2023-02-01T14:11:42;100722.84;;;3.83;87.86
77147;BME280;66121;52.584;9.694;2023-02-01T14:16:40;100729.81;;;3.92;87.71
77147;BME280;66121;52.584;9.694;2023-02-01T14:19:26;100734.47;;;3.92;86.93
77147;BME280;66121;52.584;9.694;2023-02-01T14:21:54;100736.16;;;3.97;86.95
77147;BME280;66121;52.584;9.694;2023-02-01T14:24:30;100734.38;;;4.01;87.42
77147;BME280;66121;52.584;9.694;2023-02-01T14:30:00;100725.88;;;3.81;88.08
77147;BME280;66121;52.584;9.694;2023-02-01T14:32:31;100747.72;;;3.81;87.35
77147;BME280;66121;52.584;9.694;2023-02-01T14:34:59;100755.13;;;3.81;87.79
77147;BME280;66121;52.584;9.694;2023-02-01T14:37:34;100739.28;;;3.74;87.87
77147;BME280;66121;52.584;9.694;2023-02-01T14:40:27;100751.47;;;3.77;88.25
77147;BME280;66121;52.584;9.694;2023-02-01T14:42:51;100747.94;;;3.76;87.56
77147;BME280;66121;52.584;9.694;2023-02-01T14:55:42;100758.31;;;3.83;86.62
77147;BME280;66121;52.584;9.694;2023-02-01T14:58:58;100765.03;;;3.85;86.60
77147;BME280;66121;52.584;9.694;2023-02-01T15:06:41;100762.94;;;3.50;87.36
77147;BME280;66121;52.584;9.694;2023-02-01T15:09:26;100769.47;;;3.37;88.08